Check out our new BloomSky Weather System.

Active alerts


No alerts


Thunder radar  blitzortung!


Rain radar more information rain snow radar


Visit our other weather sites:

Template documentation
and downloads

And another site



Weather Underground History page Text

Daily Summary for January 17, 2018 Units:  Both    English   Metric
« Previous Day
Next Day »
Daily Weekly Monthly Yearly Custom
  High: Low: Average:
Temperature: TemperatureF °F /  -17.8 °C 17.8 °F /  -7.9 °C 28.4 °F /  -2 °C
Dew Point: DewpointF °F /  -17.8 °C 10.9 °F /  -11.7 °C 15.6 °F /  -9.1 °C
Humidity: Humidity % 40 % 60 %
Wind Speed: WindSpeedMPH mph /  0 km/h - 1.7 mph /  2.7 km/h
Wind Gust: WindSpeedGustMPH mph /  0 km/h - -
Wind:- - West
Pressure: PressureIn in /  0 hPa 30.63 in /  1037.1 hPa -
Precipitation: 0.00 in /  0 mm    
Historical Graphs
 
 
Tabular Data for January 17, 2018
Time Temperature Dew Point Pressure Wind Wind Speed Wind Gust Humidity Rainfall Rate (Hourly)
TemperatureF °F /  -17.8 °C DewpointF °F /  -17.8 °C PressureIn in /  0 hPa Calm     Humidity % HourlyPrecipIn in /  0 mm
00:09 23.9 °F /  -4.5 °C 15.3 °F /  -9.3 °C 30.71 in /  1039.8 hPa North 2.0 mph /  3.2 km/h 14.0 mph /  22.5 km/h 69 % 0.00 in /  0 mm
00:16 23.7 °F /  -4.6 °C 15.1 °F /  -9.4 °C 30.71 in /  1039.8 hPa North 1.0 mph /  1.6 km/h 9.0 mph /  14.5 km/h 69 % 0.00 in /  0 mm
00:27 23.4 °F /  -4.8 °C 15.1 °F /  -9.4 °C 30.71 in /  1039.8 hPa NNW 3.0 mph /  4.8 km/h 6.0 mph /  9.7 km/h 70 % 0.00 in /  0 mm
01:24 22.6 °F /  -5.2 °C 13.3 °F /  -10.4 °C 30.71 in /  1039.8 hPa NW 3.0 mph /  4.8 km/h 12.0 mph /  19.3 km/h 67 % 0.00 in /  0 mm
01:31 22.6 °F /  -5.2 °C 13.3 °F /  -10.4 °C 30.71 in /  1039.8 hPa NW 8.0 mph /  12.9 km/h 10.0 mph /  16.1 km/h 67 % 0.00 in /  0 mm
01:40 22.5 °F /  -5.3 °C 13.5 °F /  -10.3 °C 30.71 in /  1039.8 hPa North 2.0 mph /  3.2 km/h 9.0 mph /  14.5 km/h 68 % 0.00 in /  0 mm
01:47 22.5 °F /  -5.3 °C 13.1 °F /  -10.5 °C 30.71 in /  1039.8 hPa NW 2.0 mph /  3.2 km/h 9.0 mph /  14.5 km/h 67 % 0.00 in /  0 mm
01:54 22.3 °F /  -5.4 °C 12.9 °F /  -10.6 °C 30.71 in /  1039.8 hPa NW 6.0 mph /  9.7 km/h 9.0 mph /  14.5 km/h 67 % 0.00 in /  0 mm
02:02 22.1 °F /  -5.5 °C 12.7 °F /  -10.7 °C 30.71 in /  1039.8 hPa NNW 4.0 mph /  6.4 km/h 9.0 mph /  14.5 km/h 67 % 0.00 in /  0 mm
02:17 21.7 °F /  -5.7 °C 12.6 °F /  -10.8 °C 30.71 in /  1039.8 hPa NW 1.0 mph /  1.6 km/h 7.0 mph /  11.3 km/h 67 % 0.00 in /  0 mm
02:34 21.6 °F /  -5.8 °C 12.4 °F /  -10.9 °C 30.71 in /  1039.8 hPa NNW 2.0 mph /  3.2 km/h 6.0 mph /  9.7 km/h 67 % 0.00 in /  0 mm
02:43 21.4 °F /  -5.9 °C 12.4 °F /  -10.9 °C 30.71 in /  1039.8 hPa North 3.0 mph /  4.8 km/h 7.0 mph /  11.3 km/h 68 % 0.00 in /  0 mm
02:48 21.2 °F /  -6 °C 12.4 °F /  -10.9 °C 30.71 in /  1039.8 hPa WNW 3.0 mph /  4.8 km/h 7.0 mph /  11.3 km/h 68 % 0.00 in /  0 mm
02:57 21.0 °F /  -6.1 °C 11.8 °F /  -11.2 °C 30.71 in /  1039.8 hPa NNE 1.0 mph /  1.6 km/h 7.0 mph /  11.3 km/h 67 % 0.00 in /  0 mm
03:12 20.8 °F /  -6.2 °C 12.0 °F /  -11.1 °C 30.71 in /  1039.8 hPa NNW 1.0 mph /  1.6 km/h 6.0 mph /  9.7 km/h 68 % 0.00 in /  0 mm
03:17 20.7 °F /  -6.3 °C 11.8 °F /  -11.2 °C 30.71 in /  1039.8 hPa NNW 2.0 mph /  3.2 km/h 6.0 mph /  9.7 km/h 68 % 0.00 in /  0 mm
03:23 20.7 °F /  -6.3 °C 11.8 °F /  -11.2 °C 30.71 in /  1039.8 hPa NNW 2.0 mph /  3.2 km/h 6.0 mph /  9.7 km/h 68 % 0.00 in /  0 mm
03:38 20.5 °F /  -6.4 °C 11.7 °F /  -11.3 °C 30.71 in /  1039.8 hPa NNW 5.0 mph /  8 km/h 9.0 mph /  14.5 km/h 68 % 0.00 in /  0 mm
03:45 20.5 °F /  -6.4 °C 11.7 °F /  -11.3 °C 30.72 in /  1040.2 hPa NNW 3.0 mph /  4.8 km/h 9.0 mph /  14.5 km/h 68 % 0.00 in /  0 mm
03:56 20.3 °F /  -6.5 °C 11.5 °F /  -11.4 °C 30.72 in /  1040.2 hPa NNW 3.0 mph /  4.8 km/h 8.0 mph /  12.9 km/h 68 % 0.00 in /  0 mm
04:14 19.9 °F /  -6.7 °C 11.5 °F /  -11.4 °C 30.72 in /  1040.2 hPa NW 2.0 mph /  3.2 km/h 7.0 mph /  11.3 km/h 69 % 0.00 in /  0 mm
04:25 19.9 °F /  -6.7 °C 11.5 °F /  -11.4 °C 30.72 in /  1040.2 hPa Calm   8.0 mph /  12.9 km/h 69 % 0.00 in /  0 mm
04:30 19.9 °F /  -6.7 °C 11.5 °F /  -11.4 °C 30.72 in /  1040.2 hPa NW 2.0 mph /  3.2 km/h 8.0 mph /  12.9 km/h 69 % 0.00 in /  0 mm
04:46 19.8 °F /  -6.8 °C 11.5 °F /  -11.4 °C 30.73 in /  1040.5 hPa NNW 2.0 mph /  3.2 km/h 6.0 mph /  9.7 km/h 70 % 0.00 in /  0 mm
05:00 19.6 °F /  -6.9 °C 11.5 °F /  -11.4 °C 30.74 in /  1040.9 hPa NW 2.0 mph /  3.2 km/h 7.0 mph /  11.3 km/h 70 % 0.00 in /  0 mm
05:11 19.4 °F /  -7 °C 11.3 °F /  -11.5 °C 30.74 in /  1040.9 hPa NNW 3.0 mph /  4.8 km/h 8.0 mph /  12.9 km/h 70 % 0.00 in /  0 mm
05:28 19.2 °F /  -7.1 °C 11.3 °F /  -11.5 °C 30.74 in /  1040.9 hPa NNW 3.0 mph /  4.8 km/h 7.0 mph /  11.3 km/h 71 % 0.00 in /  0 mm
05:35 19.0 °F /  -7.2 °C 11.5 °F /  -11.4 °C 30.74 in /  1040.9 hPa NW 2.0 mph /  3.2 km/h 8.0 mph /  12.9 km/h 72 % 0.00 in /  0 mm
05:51 18.7 °F /  -7.4 °C 11.5 °F /  -11.4 °C 30.74 in /  1040.9 hPa Calm   7.0 mph /  11.3 km/h 73 % 0.00 in /  0 mm
05:59 18.7 °F /  -7.4 °C 11.5 °F /  -11.4 °C 30.74 in /  1040.9 hPa North 1.0 mph /  1.6 km/h 7.0 mph /  11.3 km/h 73 % 0.00 in /  0 mm
06:06 18.7 °F /  -7.4 °C 11.5 °F /  -11.4 °C 30.74 in /  1040.9 hPa NNW 3.0 mph /  4.8 km/h 8.0 mph /  12.9 km/h 73 % 0.00 in /  0 mm
06:17 18.5 °F /  -7.5 °C 11.3 °F /  -11.5 °C 30.74 in /  1040.9 hPa WNW 5.0 mph /  8 km/h 7.0 mph /  11.3 km/h 73 % 0.00 in /  0 mm
06:42 18.1 °F /  -7.7 °C 11.3 °F /  -11.5 °C 30.75 in /  1041.2 hPa NW 2.0 mph /  3.2 km/h 8.0 mph /  12.9 km/h 74 % 0.00 in /  0 mm
06:48 18.1 °F /  -7.7 °C 11.3 °F /  -11.5 °C 30.74 in /  1040.9 hPa Calm   7.0 mph /  11.3 km/h 74 % 0.00 in /  0 mm
07:05 18.0 °F /  -7.8 °C 11.1 °F /  -11.6 °C 30.75 in /  1041.2 hPa NNW 2.0 mph /  3.2 km/h 7.0 mph /  11.3 km/h 74 % 0.00 in /  0 mm
07:16 17.8 °F /  -7.9 °C 10.9 °F /  -11.7 °C 30.75 in /  1041.2 hPa NNW 5.0 mph /  8 km/h 8.0 mph /  12.9 km/h 74 % 0.00 in /  0 mm
07:28 17.8 °F /  -7.9 °C 11.1 °F /  -11.6 °C 30.75 in /  1041.2 hPa NNW 4.0 mph /  6.4 km/h 8.0 mph /  12.9 km/h 75 % 0.00 in /  0 mm
07:40 17.8 °F /  -7.9 °C 11.1 °F /  -11.6 °C 30.76 in /  1041.5 hPa NNW 2.0 mph /  3.2 km/h 11.0 mph /  17.7 km/h 75 % 0.00 in /  0 mm
07:52 18.1 °F /  -7.7 °C 11.5 °F /  -11.4 °C 30.76 in /  1041.5 hPa NNW 4.0 mph /  6.4 km/h 7.0 mph /  11.3 km/h 75 % 0.00 in /  0 mm
07:59 18.3 °F /  -7.6 °C 11.7 °F /  -11.3 °C 30.77 in /  1041.9 hPa North 5.0 mph /  8 km/h 7.0 mph /  11.3 km/h 75 % 0.00 in /  0 mm
08:04 18.7 °F /  -7.4 °C 11.8 °F /  -11.2 °C 30.77 in /  1041.9 hPa NNW 5.0 mph /  8 km/h 7.0 mph /  11.3 km/h 74 % 0.00 in /  0 mm
08:10 18.9 °F /  -7.3 °C 12.0 °F /  -11.1 °C 30.77 in /  1041.9 hPa North 2.0 mph /  3.2 km/h 10.0 mph /  16.1 km/h 74 % 0.00 in /  0 mm
08:21 19.4 °F /  -7 °C 12.6 °F /  -10.8 °C 30.77 in /  1041.9 hPa NW 1.0 mph /  1.6 km/h 9.0 mph /  14.5 km/h 74 % 0.00 in /  0 mm
08:27 19.9 °F /  -6.7 °C 12.7 °F /  -10.7 °C 30.77 in /  1041.9 hPa WNW 3.0 mph /  4.8 km/h 9.0 mph /  14.5 km/h 73 % 0.00 in /  0 mm
08:33 20.1 °F /  -6.6 °C 12.9 °F /  -10.6 °C 30.77 in /  1041.9 hPa NNE 3.0 mph /  4.8 km/h 11.0 mph /  17.7 km/h 73 % 0.00 in /  0 mm
08:42 20.7 °F /  -6.3 °C 13.1 °F /  -10.5 °C 30.77 in /  1041.9 hPa WNW 3.0 mph /  4.8 km/h 11.0 mph /  17.7 km/h 72 % 0.00 in /  0 mm
08:48 21.0 °F /  -6.1 °C 12.7 °F /  -10.7 °C 30.77 in /  1041.9 hPa NNW 1.0 mph /  1.6 km/h 7.0 mph /  11.3 km/h 70 % 0.00 in /  0 mm
08:54 21.4 °F /  -5.9 °C 12.7 °F /  -10.7 °C 30.77 in /  1041.9 hPa NNW 3.0 mph /  4.8 km/h 8.0 mph /  12.9 km/h 69 % 0.00 in /  0 mm
09:16 22.3 °F /  -5.4 °C 12.7 °F /  -10.7 °C 30.77 in /  1041.9 hPa NNE 4.0 mph /  6.4 km/h 10.0 mph /  16.1 km/h 66 % 0.00 in /  0 mm
09:25 22.5 °F /  -5.3 °C 13.5 °F /  -10.3 °C 30.77 in /  1041.9 hPa NW 3.0 mph /  4.8 km/h 12.0 mph /  19.3 km/h 68 % 0.00 in /  0 mm
09:32 22.8 °F /  -5.1 °C 13.1 °F /  -10.5 °C 30.77 in /  1041.9 hPa East 8.0 mph /  12.9 km/h 12.0 mph /  19.3 km/h 66 % 0.00 in /  0 mm
09:46 23.5 °F /  -4.7 °C 13.8 °F /  -10.1 °C 30.77 in /  1041.9 hPa NNE 5.0 mph /  8 km/h 12.0 mph /  19.3 km/h 66 % 0.00 in /  0 mm
09:52 23.7 °F /  -4.6 °C 13.6 °F /  -10.2 °C 30.77 in /  1041.9 hPa NNW 3.0 mph /  4.8 km/h 12.0 mph /  19.3 km/h 65 % 0.00 in /  0 mm
09:59 24.1 °F /  -4.4 °C 13.6 °F /  -10.2 °C 30.77 in /  1041.9 hPa ENE 6.0 mph /  9.7 km/h 11.0 mph /  17.7 km/h 64 % 0.00 in /  0 mm
10:10 24.8 °F /  -4 °C 14.4 °F /  -9.8 °C 30.77 in /  1041.9 hPa NNW 5.0 mph /  8 km/h 14.0 mph /  22.5 km/h 64 % 0.00 in /  0 mm
10:18 25.3 °F /  -3.7 °C 14.2 °F /  -9.9 °C 30.76 in /  1041.5 hPa NW 3.0 mph /  4.8 km/h 11.0 mph /  17.7 km/h 62 % 0.00 in /  0 mm
10:26 25.3 °F /  -3.7 °C 14.2 °F /  -9.9 °C 30.76 in /  1041.5 hPa NW 7.0 mph /  11.3 km/h 12.0 mph /  19.3 km/h 62 % 0.00 in /  0 mm
10:38 25.9 °F /  -3.4 °C 14.7 °F /  -9.6 °C 30.76 in /  1041.5 hPa ENE 6.0 mph /  9.7 km/h 10.0 mph /  16.1 km/h 62 % 0.00 in /  0 mm
10:50 27.0 °F /  -2.8 °C 15.6 °F /  -9.1 °C 30.76 in /  1041.5 hPa NNE 5.0 mph /  8 km/h 11.0 mph /  17.7 km/h 62 % 0.00 in /  0 mm
10:57 27.1 °F /  -2.7 °C 15.1 °F /  -9.4 °C 30.75 in /  1041.2 hPa NNW 2.0 mph /  3.2 km/h 10.0 mph /  16.1 km/h 60 % 0.00 in /  0 mm
11:04 27.3 °F /  -2.6 °C 15.3 °F /  -9.3 °C 30.75 in /  1041.2 hPa North 2.0 mph /  3.2 km/h 10.0 mph /  16.1 km/h 60 % 0.00 in /  0 mm
11:11 27.9 °F /  -2.3 °C 15.8 °F /  -9 °C 30.75 in /  1041.2 hPa NW 5.0 mph /  8 km/h 14.0 mph /  22.5 km/h 60 % 0.00 in /  0 mm
11:22 28.2 °F /  -2.1 °C 14.9 °F /  -9.5 °C 30.74 in /  1040.9 hPa North 9.0 mph /  14.5 km/h 14.0 mph /  22.5 km/h 57 % 0.00 in /  0 mm
11:32 28.9 °F /  -1.7 °C 16.0 °F /  -8.9 °C 30.74 in /  1040.9 hPa North 7.0 mph /  11.3 km/h 11.0 mph /  17.7 km/h 58 % 0.00 in /  0 mm
11:39 29.1 °F /  -1.6 °C 15.8 °F /  -9 °C 30.74 in /  1040.9 hPa NNW 5.0 mph /  8 km/h 11.0 mph /  17.7 km/h 57 % 0.00 in /  0 mm
11:52 30.0 °F /  -1.1 °C 15.8 °F /  -9 °C 30.73 in /  1040.5 hPa NNE 7.0 mph /  11.3 km/h 13.0 mph /  20.9 km/h 55 % 0.00 in /  0 mm
12:36 32.4 °F /  0.2 °C 16.7 °F /  -8.5 °C 30.69 in /  1039.2 hPa NW 2.0 mph /  3.2 km/h 10.0 mph /  16.1 km/h 52 % 0.00 in /  0 mm
12:44 32.5 °F /  0.3 °C 16.3 °F /  -8.7 °C 30.69 in /  1039.2 hPa NNE 2.0 mph /  3.2 km/h 10.0 mph /  16.1 km/h 51 % 0.00 in /  0 mm
12:58 33.3 °F /  0.7 °C 16.7 °F /  -8.5 °C 30.68 in /  1038.8 hPa North 5.0 mph /  8 km/h 9.0 mph /  14.5 km/h 50 % 0.00 in /  0 mm
13:08 33.4 °F /  0.8 °C 15.4 °F /  -9.2 °C 30.67 in /  1038.5 hPa Calm   10.0 mph /  16.1 km/h 47 % 0.00 in /  0 mm
13:16 33.6 °F /  0.9 °C 16.5 °F /  -8.6 °C 30.67 in /  1038.5 hPa NW 3.0 mph /  4.8 km/h 10.0 mph /  16.1 km/h 49 % 0.00 in /  0 mm
13:22 34.5 °F /  1.4 °C 17.2 °F /  -8.2 °C 30.66 in /  1038.1 hPa NW 6.0 mph /  9.7 km/h 8.0 mph /  12.9 km/h 49 % 0.00 in /  0 mm
13:36 35.1 °F /  1.7 °C 16.3 °F /  -8.7 °C 30.66 in /  1038.1 hPa North 4.0 mph /  6.4 km/h 9.0 mph /  14.5 km/h 46 % 0.00 in /  0 mm
13:41 34.9 °F /  1.6 °C 16.2 °F /  -8.8 °C 30.66 in /  1038.1 hPa NNW 3.0 mph /  4.8 km/h 7.0 mph /  11.3 km/h 46 % 0.00 in /  0 mm
13:46 35.1 °F /  1.7 °C 15.8 °F /  -9 °C 30.66 in /  1038.1 hPa NW 1.0 mph /  1.6 km/h 9.0 mph /  14.5 km/h 45 % 0.00 in /  0 mm
13:52 35.2 °F /  1.8 °C 15.4 °F /  -9.2 °C 30.65 in /  1037.8 hPa NNW 3.0 mph /  4.8 km/h 9.0 mph /  14.5 km/h 44 % 0.00 in /  0 mm
13:57 34.9 °F /  1.6 °C 15.3 °F /  -9.3 °C 30.65 in /  1037.8 hPa NNW 6.0 mph /  9.7 km/h 9.0 mph /  14.5 km/h 44 % 0.00 in /  0 mm
14:02 35.1 °F /  1.7 °C 16.3 °F /  -8.7 °C 30.65 in /  1037.8 hPa WSW 1.0 mph /  1.6 km/h 7.0 mph /  11.3 km/h 46 % 0.00 in /  0 mm
14:07 36.1 °F /  2.3 °C 16.9 °F /  -8.4 °C 30.65 in /  1037.8 hPa NNW 3.0 mph /  4.8 km/h 6.0 mph /  9.7 km/h 45 % 0.00 in /  0 mm
14:12 36.0 °F /  2.2 °C 15.6 °F /  -9.1 °C 30.65 in /  1037.8 hPa North 5.0 mph /  8 km/h 8.0 mph /  12.9 km/h 43 % 0.00 in /  0 mm
14:17 36.1 °F /  2.3 °C 16.3 °F /  -8.7 °C 30.65 in /  1037.8 hPa NNW 5.0 mph /  8 km/h 10.0 mph /  16.1 km/h 44 % 0.00 in /  0 mm
14:22 36.0 °F /  2.2 °C 16.2 °F /  -8.8 °C 30.65 in /  1037.8 hPa NNW 1.0 mph /  1.6 km/h 10.0 mph /  16.1 km/h 44 % 0.00 in /  0 mm
14:27 36.5 °F /  2.5 °C 16.7 °F /  -8.5 °C 30.65 in /  1037.8 hPa WNW 1.0 mph /  1.6 km/h 10.0 mph /  16.1 km/h 44 % 0.00 in /  0 mm
14:32 36.9 °F /  2.7 °C 19.4 °F /  -7 °C 30.64 in /  1037.5 hPa SSW 1.0 mph /  1.6 km/h 10.0 mph /  16.1 km/h 49 % 0.00 in /  0 mm
14:35 36.9 °F /  2.7 °C 19.0 °F /  -7.2 °C 30.64 in /  1037.5 hPa NW 3.0 mph /  4.8 km/h 10.0 mph /  16.1 km/h 48 % 0.00 in /  0 mm
14:37 36.9 °F /  2.7 °C 18.5 °F /  -7.5 °C 30.64 in /  1037.5 hPa NW 2.0 mph /  3.2 km/h 6.0 mph /  9.7 km/h 47 % 0.00 in /  0 mm
14:42 36.3 °F /  2.4 °C 16.0 °F /  -8.9 °C 30.64 in /  1037.5 hPa NNW 3.0 mph /  4.8 km/h 7.0 mph /  11.3 km/h 43 % 0.00 in /  0 mm
14:44 36.3 °F /  2.4 °C 18.0 °F /  -7.8 °C 30.64 in /  1037.5 hPa Calm   7.0 mph /  11.3 km/h 47 % 0.00 in /  0 mm
14:47 36.5 °F /  2.5 °C 18.1 °F /  -7.7 °C 30.64 in /  1037.5 hPa NNW 5.0 mph /  8 km/h 8.0 mph /  12.9 km/h 47 % 0.00 in /  0 mm
14:52 36.3 °F /  2.4 °C 17.1 °F /  -8.3 °C 30.64 in /  1037.5 hPa ENE 2.0 mph /  3.2 km/h 8.0 mph /  12.9 km/h 45 % 0.00 in /  0 mm
14:57 36.3 °F /  2.4 °C 18.0 °F /  -7.8 °C 30.64 in /  1037.5 hPa North 2.0 mph /  3.2 km/h 8.0 mph /  12.9 km/h 47 % 0.00 in /  0 mm
15:02 36.9 °F /  2.7 °C 17.4 °F /  -8.1 °C 30.64 in /  1037.5 hPa Calm   8.0 mph /  12.9 km/h 45 % 0.00 in /  0 mm
15:07 37.2 °F /  2.9 °C 17.2 °F /  -8.2 °C 30.64 in /  1037.5 hPa NW 1.0 mph /  1.6 km/h 5.0 mph /  8 km/h 44 % 0.00 in /  0 mm
15:11 37.8 °F /  3.2 °C 17.8 °F /  -7.9 °C 30.64 in /  1037.5 hPa North 1.0 mph /  1.6 km/h 5.0 mph /  8 km/h 44 % 0.00 in /  0 mm
15:15 37.9 °F /  3.3 °C 17.4 °F /  -8.1 °C 30.64 in /  1037.5 hPa ENE 1.0 mph /  1.6 km/h 6.0 mph /  9.7 km/h 43 % 0.00 in /  0 mm
15:20 38.5 °F /  3.6 °C 17.4 °F /  -8.1 °C 30.64 in /  1037.5 hPa NNW 4.0 mph /  6.4 km/h 6.0 mph /  9.7 km/h 42 % 0.00 in /  0 mm
15:21 38.3 °F /  3.5 °C 17.2 °F /  -8.2 °C 30.64 in /  1037.5 hPa Calm   6.0 mph /  9.7 km/h 42 % 0.00 in /  0 mm
15:22 38.3 °F /  3.5 °C 17.2 °F /  -8.2 °C 30.64 in /  1037.5 hPa NNW 3.0 mph /  4.8 km/h 6.0 mph /  9.7 km/h 42 % 0.00 in /  0 mm
15:23 38.3 °F /  3.5 °C 17.8 °F /  -7.9 °C 30.64 in /  1037.5 hPa North 3.0 mph /  4.8 km/h 6.0 mph /  9.7 km/h 43 % 0.00 in /  0 mm
15:26 38.1 °F /  3.4 °C 16.5 °F /  -8.6 °C 30.64 in /  1037.5 hPa NW 2.0 mph /  3.2 km/h 6.0 mph /  9.7 km/h 41 % 0.00 in /  0 mm
15:27 38.1 °F /  3.4 °C 17.1 °F /  -8.3 °C 30.64 in /  1037.5 hPa Calm   6.0 mph /  9.7 km/h 42 % 0.00 in /  0 mm
15:28 38.1 °F /  3.4 °C 17.1 °F /  -8.3 °C 30.64 in /  1037.5 hPa NNW 2.0 mph /  3.2 km/h 6.0 mph /  9.7 km/h 42 % 0.00 in /  0 mm
15:33 38.5 °F /  3.6 °C 16.9 °F /  -8.4 °C 30.64 in /  1037.5 hPa NNW 1.0 mph /  1.6 km/h 6.0 mph /  9.7 km/h 41 % 0.00 in /  0 mm
15:36 38.3 °F /  3.5 °C 16.7 °F /  -8.5 °C 30.64 in /  1037.5 hPa Calm   6.0 mph /  9.7 km/h 41 % 0.00 in /  0 mm
15:38 38.1 °F /  3.4 °C 16.5 °F /  -8.6 °C 30.64 in /  1037.5 hPa Calm   6.0 mph /  9.7 km/h 41 % 0.00 in /  0 mm
15:40 38.1 °F /  3.4 °C 16.5 °F /  -8.6 °C 30.63 in /  1037.1 hPa Calm   5.0 mph /  8 km/h 41 % 0.00 in /  0 mm
15:45 37.9 °F /  3.3 °C 16.3 °F /  -8.7 °C 30.63 in /  1037.1 hPa NNW 4.0 mph /  6.4 km/h 8.0 mph /  12.9 km/h 41 % 0.00 in /  0 mm
15:49 37.6 °F /  3.1 °C 16.0 °F /  -8.9 °C 30.63 in /  1037.1 hPa NW 1.0 mph /  1.6 km/h 8.0 mph /  12.9 km/h 41 % 0.00 in /  0 mm
15:50 37.6 °F /  3.1 °C 16.5 °F /  -8.6 °C 30.63 in /  1037.1 hPa NW 2.0 mph /  3.2 km/h 8.0 mph /  12.9 km/h 42 % 0.00 in /  0 mm
15:55 37.8 °F /  3.2 °C 16.2 °F /  -8.8 °C 30.63 in /  1037.1 hPa North 3.0 mph /  4.8 km/h 8.0 mph /  12.9 km/h 41 % 0.00 in /  0 mm
16:00 37.9 °F /  3.3 °C 16.9 °F /  -8.4 °C 30.63 in /  1037.1 hPa Calm   6.0 mph /  9.7 km/h 42 % 0.00 in /  0 mm
16:05 37.9 °F /  3.3 °C 15.8 °F /  -9 °C 30.63 in /  1037.1 hPa NW 5.0 mph /  8 km/h 8.0 mph /  12.9 km/h 40 % 0.00 in /  0 mm
16:10 37.6 °F /  3.1 °C 16.5 °F /  -8.6 °C 30.63 in /  1037.1 hPa NNE 5.0 mph /  8 km/h 8.0 mph /  12.9 km/h 42 % 0.00 in /  0 mm
16:15 37.6 °F /  3.1 °C 16.5 °F /  -8.6 °C 30.63 in /  1037.1 hPa Calm   8.0 mph /  12.9 km/h 42 % 0.00 in /  0 mm
16:20 37.6 °F /  3.1 °C 16.0 °F /  -8.9 °C 30.64 in /  1037.5 hPa NW 1.0 mph /  1.6 km/h 8.0 mph /  12.9 km/h 41 % 0.00 in /  0 mm
16:25 37.4 °F /  3 °C 15.8 °F /  -9 °C 30.64 in /  1037.5 hPa Calm   8.0 mph /  12.9 km/h 41 % 0.00 in /  0 mm
16:30 37.6 °F /  3.1 °C 16.5 °F /  -8.6 °C 30.64 in /  1037.5 hPa WNW 1.0 mph /  1.6 km/h 4.0 mph /  6.4 km/h 42 % 0.00 in /  0 mm
16:35 37.6 °F /  3.1 °C 16.0 °F /  -8.9 °C 30.64 in /  1037.5 hPa Calm   4.0 mph /  6.4 km/h 41 % 0.00 in /  0 mm
16:40 37.6 °F /  3.1 °C 16.0 °F /  -8.9 °C 30.64 in /  1037.5 hPa Calm   5.0 mph /  8 km/h 41 % 0.00 in /  0 mm
16:45 37.6 °F /  3.1 °C 16.5 °F /  -8.6 °C 30.64 in /  1037.5 hPa Calm   5.0 mph /  8 km/h 42 % 0.00 in /  0 mm
16:50 37.4 °F /  3 °C 16.3 °F /  -8.7 °C 30.64 in /  1037.5 hPa NW 1.0 mph /  1.6 km/h 5.0 mph /  8 km/h 42 % 0.00 in /  0 mm
16:55 37.2 °F /  2.9 °C 16.2 °F /  -8.8 °C 30.64 in /  1037.5 hPa NNE 5.0 mph /  8 km/h 5.0 mph /  8 km/h 42 % 0.00 in /  0 mm
17:00 36.9 °F /  2.7 °C 16.5 °F /  -8.6 °C 30.64 in /  1037.5 hPa NE 1.0 mph /  1.6 km/h 5.0 mph /  8 km/h 43 % 0.00 in /  0 mm
17:05 36.9 °F /  2.7 °C 16.5 °F /  -8.6 °C 30.64 in /  1037.5 hPa Calm   5.0 mph /  8 km/h 43 % 0.00 in /  0 mm
17:10 36.5 °F /  2.5 °C 16.2 °F /  -8.8 °C 30.64 in /  1037.5 hPa Calm   5.0 mph /  8 km/h 43 % 0.00 in /  0 mm
17:15 36.3 °F /  2.4 °C 16.0 °F /  -8.9 °C 30.64 in /  1037.5 hPa Calm   5.0 mph /  8 km/h 43 % 0.00 in /  0 mm
17:20 36.0 °F /  2.2 °C 16.2 °F /  -8.8 °C 30.64 in /  1037.5 hPa NE 1.0 mph /  1.6 km/h 5.0 mph /  8 km/h 44 % 0.00 in /  0 mm
17:25 35.8 °F /  2.1 °C 16.5 °F /  -8.6 °C 30.64 in /  1037.5 hPa Calm   2.0 mph /  3.2 km/h 45 % 0.00 in /  0 mm
17:30 35.4 °F /  1.9 °C 16.7 °F /  -8.5 °C 30.64 in /  1037.5 hPa Calm   2.0 mph /  3.2 km/h 46 % 0.00 in /  0 mm
17:35 35.2 °F /  1.8 °C 16.5 °F /  -8.6 °C 30.64 in /  1037.5 hPa Calm   3.0 mph /  4.8 km/h 46 % 0.00 in /  0 mm
17:40 35.1 °F /  1.7 °C 16.9 °F /  -8.4 °C 30.64 in /  1037.5 hPa Calm   4.0 mph /  6.4 km/h 47 % 0.00 in /  0 mm
17:45 34.9 °F /  1.6 °C 16.7 °F /  -8.5 °C 30.64 in /  1037.5 hPa NNE 1.0 mph /  1.6 km/h 4.0 mph /  6.4 km/h 47 % 0.00 in /  0 mm
17:50 34.3 °F /  1.3 °C 16.7 °F /  -8.5 °C 30.64 in /  1037.5 hPa Calm   4.0 mph /  6.4 km/h 48 % 0.00 in /  0 mm
17:56 34.2 °F /  1.2 °C 16.5 °F /  -8.6 °C 30.63 in /  1037.1 hPa NE 1.0 mph /  1.6 km/h 3.0 mph /  4.8 km/h 48 % 0.00 in /  0 mm
18:01 33.8 °F /  1 °C 16.7 °F /  -8.5 °C 30.63 in /  1037.1 hPa NNE 1.0 mph /  1.6 km/h 3.0 mph /  4.8 km/h 49 % 0.00 in /  0 mm
18:06 33.6 °F /  0.9 °C 16.9 °F /  -8.4 °C 30.63 in /  1037.1 hPa NNE 1.0 mph /  1.6 km/h 3.0 mph /  4.8 km/h 50 % 0.00 in /  0 mm
18:11 33.3 °F /  0.7 °C 16.7 °F /  -8.5 °C 30.63 in /  1037.1 hPa Calm   2.0 mph /  3.2 km/h 50 % 0.00 in /  0 mm
18:16 33.1 °F /  0.6 °C 16.5 °F /  -8.6 °C 30.63 in /  1037.1 hPa North 1.0 mph /  1.6 km/h 2.0 mph /  3.2 km/h 50 % 0.00 in /  0 mm
18:21 32.7 °F /  0.4 °C 16.2 °F /  -8.8 °C 30.63 in /  1037.1 hPa Calm   2.0 mph /  3.2 km/h 50 % 0.00 in /  0 mm
18:26 32.7 °F /  0.4 °C 16.5 °F /  -8.6 °C 30.63 in /  1037.1 hPa North 1.0 mph /  1.6 km/h 2.0 mph /  3.2 km/h 51 % 0.00 in /  0 mm
18:31 32.4 °F /  0.2 °C 16.3 °F /  -8.7 °C 30.63 in /  1037.1 hPa Calm   2.0 mph /  3.2 km/h 51 % 0.00 in /  0 mm
18:36 32.2 °F /  0.1 °C 16.5 °F /  -8.6 °C 30.63 in /  1037.1 hPa Calm   2.0 mph /  3.2 km/h 52 % 0.00 in /  0 mm
18:41 32.0 °F /  0 °C 16.9 °F /  -8.4 °C 30.63 in /  1037.1 hPa Calm   2.0 mph /  3.2 km/h 53 % 0.00 in /  0 mm
18:46 31.8 °F /  -0.1 °C 16.7 °F /  -8.5 °C 30.63 in /  1037.1 hPa NW 1.0 mph /  1.6 km/h 2.0 mph /  3.2 km/h 53 % 0.00 in /  0 mm
18:51 31.6 °F /  -0.2 °C 16.5 °F /  -8.6 °C 30.63 in /  1037.1 hPa Calm   2.0 mph /  3.2 km/h 53 % 0.00 in /  0 mm
18:56 31.6 °F /  -0.2 °C 16.5 °F /  -8.6 °C 30.63 in /  1037.1 hPa Calm   2.0 mph /  3.2 km/h 53 % 0.00 in /  0 mm
19:01 31.5 °F /  -0.3 °C 16.3 °F /  -8.7 °C 30.63 in /  1037.1 hPa Calm   2.0 mph /  3.2 km/h 53 % 0.00 in /  0 mm
19:06 31.3 °F /  -0.4 °C 16.5 °F /  -8.6 °C 30.63 in /  1037.1 hPa NNW 1.0 mph /  1.6 km/h 1.0 mph /  1.6 km/h 54 % 0.00 in /  0 mm
19:11 31.3 °F /  -0.4 °C 16.5 °F /  -8.6 °C 30.63 in /  1037.1 hPa Calm   2.0 mph /  3.2 km/h 54 % 0.00 in /  0 mm
19:16 31.1 °F /  -0.5 °C 16.3 °F /  -8.7 °C 30.63 in /  1037.1 hPa Calm   2.0 mph /  3.2 km/h 54 % 0.00 in /  0 mm
19:21 30.9 °F /  -0.6 °C 16.7 °F /  -8.5 °C 30.63 in /  1037.1 hPa Calm   2.0 mph /  3.2 km/h 55 % 0.00 in /  0 mm
19:26 30.7 °F /  -0.7 °C 16.5 °F /  -8.6 °C 30.63 in /  1037.1 hPa Calm   2.0 mph /  3.2 km/h 55 % 0.00 in /  0 mm
19:31 30.6 °F /  -0.8 °C 16.7 °F /  -8.5 °C 30.63 in /  1037.1 hPa Calm   2.0 mph /  3.2 km/h 56 % 0.00 in /  0 mm
19:36 30.4 °F /  -0.9 °C 16.5 °F /  -8.6 °C 30.63 in /  1037.1 hPa Calm   1.0 mph /  1.6 km/h 56 % 0.00 in /  0 mm
19:41 30.2 °F /  -1 °C 16.9 °F /  -8.4 °C 30.63 in /  1037.1 hPa Calm   1.0 mph /  1.6 km/h 57 % 0.00 in /  0 mm
19:46 30.0 °F /  -1.1 °C 16.7 °F /  -8.5 °C 30.63 in /  1037.1 hPa Calm   1.0 mph /  1.6 km/h 57 % 0.00 in /  0 mm
19:51 29.8 °F /  -1.2 °C 16.5 °F /  -8.6 °C 30.63 in /  1037.1 hPa Calm   1.0 mph /  1.6 km/h 57 % 0.00 in /  0 mm
19:56 29.8 °F /  -1.2 °C 16.9 °F /  -8.4 °C 30.63 in /  1037.1 hPa Calm   1.0 mph /  1.6 km/h 58 % 0.00 in /  0 mm
20:01 29.7 °F /  -1.3 °C 16.7 °F /  -8.5 °C 30.63 in /  1037.1 hPa Calm   1.0 mph /  1.6 km/h 58 % 0.00 in /  0 mm
20:06 29.7 °F /  -1.3 °C 16.7 °F /  -8.5 °C 30.63 in /  1037.1 hPa Calm   1.0 mph /  1.6 km/h 58 % 0.00 in /  0 mm
20:11 29.5 °F /  -1.4 °C 16.5 °F /  -8.6 °C 30.63 in /  1037.1 hPa Calm   1.0 mph /  1.6 km/h 58 % 0.00 in /  0 mm
20:12 29.5 °F /  -1.4 °C 16.5 °F /  -8.6 °C 30.63 in /  1037.1 hPa Calm   1.0 mph /  1.6 km/h 58 % 0.00 in /  0 mm
20:17 29.1 °F /  -1.6 °C 16.5 °F /  -8.6 °C 30.63 in /  1037.1 hPa Calm   1.0 mph /  1.6 km/h 59 % 0.00 in /  0 mm
20:22 28.8 °F /  -1.8 °C 16.2 °F /  -8.8 °C 30.63 in /  1037.1 hPa Calm   1.0 mph /  1.6 km/h 59 % 0.00 in /  0 mm
20:27 28.6 °F /  -1.9 °C 16.5 °F /  -8.6 °C 30.63 in /  1037.1 hPa Calm   1.0 mph /  1.6 km/h 60 % 0.00 in /  0 mm
20:32 28.2 °F /  -2.1 °C 16.2 °F /  -8.8 °C 30.63 in /  1037.1 hPa Calm   1.0 mph /  1.6 km/h 60 % 0.00 in /  0 mm
20:37 27.9 °F /  -2.3 °C 16.2 °F /  -8.8 °C 30.64 in /  1037.5 hPa Calm     61 % 0.00 in /  0 mm
20:42 27.3 °F /  -2.6 °C 16.7 °F /  -8.5 °C 30.63 in /  1037.1 hPa Calm     64 % 0.00 in /  0 mm
20:47 27.0 °F /  -2.8 °C 16.7 °F /  -8.5 °C 30.64 in /  1037.5 hPa Calm     65 % 0.00 in /  0 mm
20:52 26.6 °F /  -3 °C 16.7 °F /  -8.5 °C 30.63 in /  1037.1 hPa Calm     66 % 0.00 in /  0 mm
20:57 26.1 °F /  -3.3 °C 16.7 °F /  -8.5 °C 30.63 in /  1037.1 hPa Calm     67 % 0.00 in /  0 mm
21:02 25.5 °F /  -3.6 °C 16.5 °F /  -8.6 °C 30.64 in /  1037.5 hPa Calm     68 % 0.00 in /  0 mm
21:07 25.0 °F /  -3.9 °C 16.0 °F /  -8.9 °C 30.64 in /  1037.5 hPa Calm     68 % 0.00 in /  0 mm
21:12 24.6 °F /  -4.1 °C 16.5 °F /  -8.6 °C 30.64 in /  1037.5 hPa Calm     71 % 0.00 in /  0 mm
21:17 24.4 °F /  -4.2 °C 16.7 °F /  -8.5 °C 30.64 in /  1037.5 hPa Calm     72 % 0.00 in /  0 mm
21:22 24.3 °F /  -4.3 °C 16.5 °F /  -8.6 °C 30.64 in /  1037.5 hPa Calm     72 % 0.00 in /  0 mm
21:27 24.3 °F /  -4.3 °C 16.5 °F /  -8.6 °C 30.64 in /  1037.5 hPa Calm     72 % 0.00 in /  0 mm
21:32 24.1 °F /  -4.4 °C 16.7 °F /  -8.5 °C 30.64 in /  1037.5 hPa Calm     73 % 0.00 in /  0 mm
21:38 24.1 °F /  -4.4 °C 17.2 °F /  -8.2 °C 30.64 in /  1037.5 hPa Calm     75 % 0.00 in /  0 mm
21:42 24.3 °F /  -4.3 °C 17.8 °F /  -7.9 °C 30.64 in /  1037.5 hPa Calm     76 % 0.00 in /  0 mm
21:48 24.3 °F /  -4.3 °C 18.1 °F /  -7.7 °C 30.64 in /  1037.5 hPa Calm     77 % 0.00 in /  0 mm
21:53 24.8 °F /  -4 °C 18.9 °F /  -7.3 °C 30.64 in /  1037.5 hPa Calm   1.0 mph /  1.6 km/h 78 % 0.00 in /  0 mm
21:58 24.8 °F /  -4 °C 18.7 °F /  -7.4 °C 30.64 in /  1037.5 hPa Calm   1.0 mph /  1.6 km/h 77 % 0.00 in /  0 mm
22:03 24.8 °F /  -4 °C 18.9 °F /  -7.3 °C 30.64 in /  1037.5 hPa Calm   1.0 mph /  1.6 km/h 78 % 0.00 in /  0 mm
22:08 25.0 °F /  -3.9 °C 19.0 °F /  -7.2 °C 30.64 in /  1037.5 hPa Calm     78 % 0.00 in /  0 mm
22:13 24.8 °F /  -4 °C 18.9 °F /  -7.3 °C 30.64 in /  1037.5 hPa Calm     78 % 0.00 in /  0 mm
22:18 24.4 °F /  -4.2 °C 18.5 °F /  -7.5 °C 30.64 in /  1037.5 hPa Calm     78 % 0.00 in /  0 mm
22:23 24.1 °F /  -4.4 °C 18.1 °F /  -7.7 °C 30.64 in /  1037.5 hPa Calm     78 % 0.00 in /  0 mm
22:28 23.9 °F /  -4.5 °C 18.7 °F /  -7.4 °C 30.65 in /  1037.8 hPa Calm     80 % 0.00 in /  0 mm
22:33 23.7 °F /  -4.6 °C 18.5 °F /  -7.5 °C 30.65 in /  1037.8 hPa Calm     80 % 0.00 in /  0 mm
22:38 23.5 °F /  -4.7 °C 18.3 °F /  -7.6 °C 30.65 in /  1037.8 hPa Calm     80 % 0.00 in /  0 mm
22:43 23.5 °F /  -4.7 °C 18.5 °F /  -7.5 °C 30.65 in /  1037.8 hPa Calm     81 % 0.00 in /  0 mm
22:48 23.5 °F /  -4.7 °C 18.5 °F /  -7.5 °C 30.65 in /  1037.8 hPa Calm     81 % 0.00 in /  0 mm
22:53 23.2 °F /  -4.9 °C 18.1 °F /  -7.7 °C 30.65 in /  1037.8 hPa Calm     81 % 0.00 in /  0 mm
22:58 23.2 °F /  -4.9 °C 18.5 °F /  -7.5 °C 30.65 in /  1037.8 hPa Calm     82 % 0.00 in /  0 mm
23:03 23.2 °F /  -4.9 °C 18.5 °F /  -7.5 °C 30.65 in /  1037.8 hPa Calm     82 % 0.00 in /  0 mm
23:08 22.6 °F /  -5.2 °C 18.0 °F /  -7.8 °C 30.65 in /  1037.8 hPa Calm     82 % 0.00 in /  0 mm
23:13 22.5 °F /  -5.3 °C 18.1 °F /  -7.7 °C 30.65 in /  1037.8 hPa Calm     83 % 0.00 in /  0 mm
23:18 22.3 °F /  -5.4 °C 18.1 °F /  -7.7 °C 30.65 in /  1037.8 hPa Calm     84 % 0.00 in /  0 mm
23:23 22.3 °F /  -5.4 °C 18.5 °F /  -7.5 °C 30.65 in /  1037.8 hPa Calm     85 % 0.00 in /  0 mm
23:28 22.5 °F /  -5.3 °C 18.7 °F /  -7.4 °C 30.65 in /  1037.8 hPa Calm     85 % 0.00 in /  0 mm
23:33 22.8 °F /  -5.1 °C 19.2 °F /  -7.1 °C 30.65 in /  1037.8 hPa Calm     86 % 0.00 in /  0 mm
23:38 23.2 °F /  -4.9 °C 19.9 °F /  -6.7 °C 30.64 in /  1037.5 hPa Calm     87 % 0.00 in /  0 mm
23:43 23.2 °F /  -4.9 °C 19.6 °F /  -6.9 °C 30.64 in /  1037.5 hPa Calm     86 % 0.00 in /  0 mm
23:48 23.2 °F /  -4.9 °C 19.9 °F /  -6.7 °C 30.64 in /  1037.5 hPa Calm     87 % 0.00 in /  0 mm
23:53 23.2 °F /  -4.9 °C 19.9 °F /  -6.7 °C 30.64 in /  1037.5 hPa Calm   1.0 mph /  1.6 km/h 87 % 0.00 in /  0 mm
23:58 23.2 °F /  -4.9 °C 19.6 °F /  -6.9 °C 30.64 in /  1037.5 hPa Calm   1.0 mph /  1.6 km/h 86 % 0.00 in /  0 mm
Spring, Texas: Villages of Bridgestone
Compliments of Weather Underground - 2.5 mb

Script developed by  Jim McMurry - jmcmurry@mwt.net Adapted for the template by  Wim van der Kuil - Leuven-Template.eu

You find our weather info also at:

UK Metoffice

WeatherCloud

Weather Underground

Mid-South Weather Network

AWEKAS

Citizen Weather Observer Program (CWOP)

HAMweather, WeatherForYou, PWS Weather

Equipment we use:

Weather-station
Davis Vantage Vue

Weather-program
Meteohub

Weather-server
Debian 7.9 x86 (Guest)

Provider
DreamHost

Davis Vantage Vue

Meteohub

Debian 7.9 x86 (Guest)

DreamHost